sensor_id;sensor_type;location;lat;lon;timestamp;P1;durP1;ratioP1;P2;durP2;ratioP2
23573;SDS011;11965;53.640;10.050;2023-05-19T00:01:51;6.54;;;6.54;;
23573;SDS011;11965;53.640;10.050;2023-05-19T00:04:20;6.59;;;6.59;;
23573;SDS011;11965;53.640;10.050;2023-05-19T00:06:48;6.71;;;6.71;;
23573;SDS011;11965;53.640;10.050;2023-05-19T00:09:16;6.25;;;6.25;;
23573;SDS011;11965;53.640;10.050;2023-05-19T00:11:45;6.73;;;6.73;;
23573;SDS011;11965;53.640;10.050;2023-05-19T00:14:12;6.49;;;6.49;;
23573;SDS011;11965;53.640;10.050;2023-05-19T00:16:41;6.31;;;6.31;;
23573;SDS011;11965;53.640;10.050;2023-05-19T00:19:08;7.21;;;7.21;;
23573;SDS011;11965;53.640;10.050;2023-05-19T00:21:35;7.13;;;7.13;;
23573;SDS011;11965;53.640;10.050;2023-05-19T00:24:04;7.26;;;7.26;;
23573;SDS011;11965;53.640;10.050;2023-05-19T00:26:31;6.94;;;6.94;;
23573;SDS011;11965;53.640;10.050;2023-05-19T00:29:04;7.49;;;7.49;;
23573;SDS011;11965;53.640;10.050;2023-05-19T00:31:31;7.29;;;7.29;;
23573;SDS011;11965;53.640;10.050;2023-05-19T00:33:59;7.36;;;7.36;;
23573;SDS011;11965;53.640;10.050;2023-05-19T00:36:27;7.30;;;7.30;;
23573;SDS011;11965;53.640;10.050;2023-05-19T00:38:54;7.24;;;7.24;;
23573;SDS011;11965;53.640;10.050;2023-05-19T00:41:22;7.34;;;7.34;;
23573;SDS011;11965;53.640;10.050;2023-05-19T00:43:50;7.58;;;7.58;;
23573;SDS011;11965;53.640;10.050;2023-05-19T00:46:19;7.59;;;7.59;;
23573;SDS011;11965;53.640;10.050;2023-05-19T00:48:47;7.70;;;7.70;;
23573;SDS011;11965;53.640;10.050;2023-05-19T00:51:14;8.00;;;8.00;;
23573;SDS011;11965;53.640;10.050;2023-05-19T00:53:43;7.58;;;7.58;;
23573;SDS011;11965;53.640;10.050;2023-05-19T00:56:13;7.52;;;7.52;;
23573;SDS011;11965;53.640;10.050;2023-05-19T00:58:42;7.45;;;7.45;;
23573;SDS011;11965;53.640;10.050;2023-05-19T01:01:11;7.69;;;7.69;;
23573;SDS011;11965;53.640;10.050;2023-05-19T01:03:43;7.78;;;7.78;;
23573;SDS011;11965;53.640;10.050;2023-05-19T01:06:11;7.39;;;7.39;;
23573;SDS011;11965;53.640;10.050;2023-05-19T01:08:39;7.68;;;7.68;;
23573;SDS011;11965;53.640;10.050;2023-05-19T01:11:10;7.15;;;7.15;;
23573;SDS011;11965;53.640;10.050;2023-05-19T01:13:38;7.60;;;7.60;;
23573;SDS011;11965;53.640;10.050;2023-05-19T01:16:06;7.45;;;7.45;;
23573;SDS011;11965;53.640;10.050;2023-05-19T01:18:42;7.18;;;7.18;;
23573;SDS011;11965;53.640;10.050;2023-05-19T01:24:44;7.69;;;7.69;;
23573;SDS011;11965;53.640;10.050;2023-05-19T01:27:41;7.64;;;7.64;;
23573;SDS011;11965;53.640;10.050;2023-05-19T01:30:44;7.61;;;7.61;;
23573;SDS011;11965;53.640;10.050;2023-05-19T01:33:17;7.62;;;7.62;;
23573;SDS011;11965;53.640;10.050;2023-05-19T01:35:46;7.76;;;7.76;;
23573;SDS011;11965;53.640;10.050;2023-05-19T01:38:19;7.79;;;7.79;;
23573;SDS011;11965;53.640;10.050;2023-05-19T01:40:48;7.75;;;7.75;;
23573;SDS011;11965;53.640;10.050;2023-05-19T01:43:18;7.85;;;7.85;;
23573;SDS011;11965;53.640;10.050;2023-05-19T01:45:49;8.11;;;8.11;;
23573;SDS011;11965;53.640;10.050;2023-05-19T01:48:18;8.29;;;8.29;;
23573;SDS011;11965;53.640;10.050;2023-05-19T01:50:45;8.17;;;8.17;;
23573;SDS011;11965;53.640;10.050;2023-05-19T01:53:14;8.25;;;8.25;;
23573;SDS011;11965;53.640;10.050;2023-05-19T01:55:42;8.24;;;8.24;;
23573;SDS011;11965;53.640;10.050;2023-05-19T01:58:15;8.58;;;8.58;;
23573;SDS011;11965;53.640;10.050;2023-05-19T02:00:51;8.03;;;8.03;;
23573;SDS011;11965;53.640;10.050;2023-05-19T02:03:28;8.53;;;8.53;;
23573;SDS011;11965;53.640;10.050;2023-05-19T02:06:13;8.78;;;8.78;;
23573;SDS011;11965;53.640;10.050;2023-05-19T02:08:50;8.63;;;8.63;;
23573;SDS011;11965;53.640;10.050;2023-05-19T02:11:30;8.80;;;8.80;;
23573;SDS011;11965;53.640;10.050;2023-05-19T02:14:05;8.46;;;8.46;;
23573;SDS011;11965;53.640;10.050;2023-05-19T02:16:40;8.51;;;8.51;;
23573;SDS011;11965;53.640;10.050;2023-05-19T02:19:20;8.54;;;8.54;;
23573;SDS011;11965;53.640;10.050;2023-05-19T02:21:54;9.08;;;9.08;;
23573;SDS011;11965;53.640;10.050;2023-05-19T02:24:22;8.85;;;8.85;;
23573;SDS011;11965;53.640;10.050;2023-05-19T02:26:49;8.69;;;8.69;;
23573;SDS011;11965;53.640;10.050;2023-05-19T02:29:17;8.90;;;8.90;;
23573;SDS011;11965;53.640;10.050;2023-05-19T02:31:47;9.44;;;9.44;;
23573;SDS011;11965;53.640;10.050;2023-05-19T02:34:17;9.49;;;9.49;;
23573;SDS011;11965;53.640;10.050;2023-05-19T02:36:45;9.08;;;9.08;;
23573;SDS011;11965;53.640;10.050;2023-05-19T02:39:14;9.18;;;9.18;;
23573;SDS011;11965;53.640;10.050;2023-05-19T02:41:41;9.14;;;9.14;;
23573;SDS011;11965;53.640;10.050;2023-05-19T02:44:09;9.55;;;9.55;;
23573;SDS011;11965;53.640;10.050;2023-05-19T02:46:36;9.39;;;9.39;;
23573;SDS011;11965;53.640;10.050;2023-05-19T02:49:05;9.12;;;9.12;;
23573;SDS011;11965;53.640;10.050;2023-05-19T02:51:32;9.29;;;9.29;;
23573;SDS011;11965;53.640;10.050;2023-05-19T02:53:59;9.47;;;9.47;;
23573;SDS011;11965;53.640;10.050;2023-05-19T02:56:26;9.50;;;9.50;;
23573;SDS011;11965;53.640;10.050;2023-05-19T02:58:53;9.40;;;9.40;;
23573;SDS011;11965;53.640;10.050;2023-05-19T03:01:20;8.97;;;8.97;;
23573;SDS011;11965;53.640;10.050;2023-05-19T03:03:48;8.90;;;8.90;;
23573;SDS011;11965;53.640;10.050;2023-05-19T03:06:16;9.32;;;9.32;;
23573;SDS011;11965;53.640;10.050;2023-05-19T03:08:48;9.71;;;9.71;;
23573;SDS011;11965;53.640;10.050;2023-05-19T03:11:15;9.41;;;9.41;;
23573;SDS011;11965;53.640;10.050;2023-05-19T03:13:42;8.87;;;8.87;;
23573;SDS011;11965;53.640;10.050;2023-05-19T03:16:09;9.03;;;9.03;;
23573;SDS011;11965;53.640;10.050;2023-05-19T03:18:39;9.46;;;9.46;;
23573;SDS011;11965;53.640;10.050;2023-05-19T03:21:06;9.42;;;9.42;;
23573;SDS011;11965;53.640;10.050;2023-05-19T03:23:34;9.66;;;9.66;;
23573;SDS011;11965;53.640;10.050;2023-05-19T03:26:02;9.51;;;9.51;;
23573;SDS011;11965;53.640;10.050;2023-05-19T03:28:29;9.48;;;9.48;;
23573;SDS011;11965;53.640;10.050;2023-05-19T03:30:56;9.57;;;9.57;;
23573;SDS011;11965;53.640;10.050;2023-05-19T03:33:27;9.56;;;9.56;;
23573;SDS011;11965;53.640;10.050;2023-05-19T03:35:54;9.46;;;9.46;;
23573;SDS011;11965;53.640;10.050;2023-05-19T03:38:24;9.59;;;9.59;;
23573;SDS011;11965;53.640;10.050;2023-05-19T03:40:57;9.63;;;9.63;;
23573;SDS011;11965;53.640;10.050;2023-05-19T03:43:24;9.43;;;9.43;;
23573;SDS011;11965;53.640;10.050;2023-05-19T03:45:58;9.87;;;9.87;;
23573;SDS011;11965;53.640;10.050;2023-05-19T03:48:43;9.44;;;9.44;;
23573;SDS011;11965;53.640;10.050;2023-05-19T03:51:30;9.82;;;9.82;;
23573;SDS011;11965;53.640;10.050;2023-05-19T03:54:10;9.75;;;9.75;;
23573;SDS011;11965;53.640;10.050;2023-05-19T03:56:40;9.56;;;9.56;;
23573;SDS011;11965;53.640;10.050;2023-05-19T03:59:08;9.57;;;9.57;;
23573;SDS011;11965;53.640;10.050;2023-05-19T04:01:36;9.81;;;9.81;;
23573;SDS011;11965;53.640;10.050;2023-05-19T04:04:03;9.36;;;9.36;;
23573;SDS011;11965;53.640;10.050;2023-05-19T04:06:30;10.00;;;10.00;;
23573;SDS011;11965;53.640;10.050;2023-05-19T04:08:58;9.91;;;9.91;;
23573;SDS011;11965;53.640;10.050;2023-05-19T04:11:25;9.65;;;9.65;;
23573;SDS011;11965;53.640;10.050;2023-05-19T04:13:53;9.55;;;9.55;;
23573;SDS011;11965;53.640;10.050;2023-05-19T04:16:20;9.48;;;9.48;;
23573;SDS011;11965;53.640;10.050;2023-05-19T04:18:47;9.18;;;9.18;;
23573;SDS011;11965;53.640;10.050;2023-05-19T04:21:14;9.47;;;9.47;;
23573;SDS011;11965;53.640;10.050;2023-05-19T04:23:41;9.56;;;9.56;;
23573;SDS011;11965;53.640;10.050;2023-05-19T04:26:08;9.38;;;9.38;;
23573;SDS011;11965;53.640;10.050;2023-05-19T04:28:36;9.27;;;9.27;;
23573;SDS011;11965;53.640;10.050;2023-05-19T04:31:08;9.26;;;9.26;;
23573;SDS011;11965;53.640;10.050;2023-05-19T04:33:37;9.47;;;9.47;;
23573;SDS011;11965;53.640;10.050;2023-05-19T04:36:05;9.18;;;9.18;;
23573;SDS011;11965;53.640;10.050;2023-05-19T04:38:37;9.00;;;9.00;;
23573;SDS011;11965;53.640;10.050;2023-05-19T04:41:05;9.10;;;9.10;;
23573;SDS011;11965;53.640;10.050;2023-05-19T04:43:36;9.16;;;9.16;;
23573;SDS011;11965;53.640;10.050;2023-05-19T04:46:07;8.71;;;8.71;;
23573;SDS011;11965;53.640;10.050;2023-05-19T04:48:37;8.72;;;8.72;;
23573;SDS011;11965;53.640;10.050;2023-05-19T04:51:05;8.99;;;8.99;;
23573;SDS011;11965;53.640;10.050;2023-05-19T04:53:32;8.86;;;8.86;;
23573;SDS011;11965;53.640;10.050;2023-05-19T04:56:00;9.23;;;9.23;;
23573;SDS011;11965;53.640;10.050;2023-05-19T04:58:29;8.57;;;8.57;;
23573;SDS011;11965;53.640;10.050;2023-05-19T05:00:56;8.70;;;8.70;;
23573;SDS011;11965;53.640;10.050;2023-05-19T05:03:29;8.53;;;8.53;;
23573;SDS011;11965;53.640;10.050;2023-05-19T05:05:57;8.28;;;8.28;;
23573;SDS011;11965;53.640;10.050;2023-05-19T05:08:24;8.17;;;8.17;;
23573;SDS011;11965;53.640;10.050;2023-05-19T05:10:52;8.44;;;8.44;;
23573;SDS011;11965;53.640;10.050;2023-05-19T05:13:21;7.97;;;7.97;;
23573;SDS011;11965;53.640;10.050;2023-05-19T05:15:50;8.45;;;8.45;;
23573;SDS011;11965;53.640;10.050;2023-05-19T05:18:20;8.79;;;8.79;;
23573;SDS011;11965;53.640;10.050;2023-05-19T05:23:20;8.48;;;8.48;;
23573;SDS011;11965;53.640;10.050;2023-05-19T05:25:48;7.85;;;7.85;;
23573;SDS011;11965;53.640;10.050;2023-05-19T05:28:17;8.06;;;8.06;;
23573;SDS011;11965;53.640;10.050;2023-05-19T05:30:45;8.31;;;8.31;;
23573;SDS011;11965;53.640;10.050;2023-05-19T05:33:14;8.25;;;8.25;;
23573;SDS011;11965;53.640;10.050;2023-05-19T05:35:42;7.80;;;7.80;;
23573;SDS011;11965;53.640;10.050;2023-05-19T05:38:13;7.95;;;7.95;;
23573;SDS011;11965;53.640;10.050;2023-05-19T05:40:41;7.87;;;7.87;;
23573;SDS011;11965;53.640;10.050;2023-05-19T05:43:09;8.04;;;8.04;;
23573;SDS011;11965;53.640;10.050;2023-05-19T05:45:43;7.62;;;7.62;;
23573;SDS011;11965;53.640;10.050;2023-05-19T05:48:10;7.31;;;7.31;;
23573;SDS011;11965;53.640;10.050;2023-05-19T05:50:38;7.66;;;7.66;;
23573;SDS011;11965;53.640;10.050;2023-05-19T05:53:09;7.16;;;7.16;;
23573;SDS011;11965;53.640;10.050;2023-05-19T05:55:48;7.16;;;7.16;;
23573;SDS011;11965;53.640;10.050;2023-05-19T05:58:16;6.99;;;6.99;;
23573;SDS011;11965;53.640;10.050;2023-05-19T06:00:43;6.55;;;6.55;;
23573;SDS011;11965;53.640;10.050;2023-05-19T06:03:13;6.74;;;6.74;;
23573;SDS011;11965;53.640;10.050;2023-05-19T06:05:42;7.00;;;7.00;;
23573;SDS011;11965;53.640;10.050;2023-05-19T06:08:09;6.57;;;6.57;;
23573;SDS011;11965;53.640;10.050;2023-05-19T06:10:37;6.22;;;6.22;;
23573;SDS011;11965;53.640;10.050;2023-05-19T06:13:09;6.19;;;6.19;;
23573;SDS011;11965;53.640;10.050;2023-05-19T06:15:38;6.12;;;6.12;;
23573;SDS011;11965;53.640;10.050;2023-05-19T06:18:15;6.09;;;6.09;;
23573;SDS011;11965;53.640;10.050;2023-05-19T06:20:42;5.97;;;5.97;;
23573;SDS011;11965;53.640;10.050;2023-05-19T06:23:10;5.87;;;5.87;;
23573;SDS011;11965;53.640;10.050;2023-05-19T06:25:40;5.77;;;5.76;;
23573;SDS011;11965;53.640;10.050;2023-05-19T06:28:07;5.88;;;5.87;;
23573;SDS011;11965;53.640;10.050;2023-05-19T06:30:36;5.39;;;5.39;;
23573;SDS011;11965;53.640;10.050;2023-05-19T06:33:24;5.67;;;5.67;;
23573;SDS011;11965;53.640;10.050;2023-05-19T06:35:52;5.66;;;5.66;;
23573;SDS011;11965;53.640;10.050;2023-05-19T06:38:19;5.70;;;5.70;;
23573;SDS011;11965;53.640;10.050;2023-05-19T06:40:48;5.58;;;5.58;;
23573;SDS011;11965;53.640;10.050;2023-05-19T06:43:15;5.05;;;5.05;;
23573;SDS011;11965;53.640;10.050;2023-05-19T06:45:53;5.02;;;5.02;;
23573;SDS011;11965;53.640;10.050;2023-05-19T06:48:23;5.27;;;5.27;;
23573;SDS011;11965;53.640;10.050;2023-05-19T06:50:51;5.24;;;5.24;;
23573;SDS011;11965;53.640;10.050;2023-05-19T06:53:18;4.89;;;4.89;;
23573;SDS011;11965;53.640;10.050;2023-05-19T06:55:51;5.18;;;5.18;;
23573;SDS011;11965;53.640;10.050;2023-05-19T06:58:21;5.24;;;5.24;;
23573;SDS011;11965;53.640;10.050;2023-05-19T07:00:49;5.18;;;5.14;;
23573;SDS011;11965;53.640;10.050;2023-05-19T07:03:16;5.10;;;5.08;;
23573;SDS011;11965;53.640;10.050;2023-05-19T07:05:43;4.76;;;4.76;;
23573;SDS011;11965;53.640;10.050;2023-05-19T07:08:10;5.32;;;5.32;;
23573;SDS011;11965;53.640;10.050;2023-05-19T07:10:38;4.95;;;4.95;;
23573;SDS011;11965;53.640;10.050;2023-05-19T07:13:12;4.64;;;4.64;;
23573;SDS011;11965;53.640;10.050;2023-05-19T07:15:40;5.11;;;5.11;;
23573;SDS011;11965;53.640;10.050;2023-05-19T07:18:07;4.57;;;4.57;;
23573;SDS011;11965;53.640;10.050;2023-05-19T07:20:34;4.63;;;4.63;;
23573;SDS011;11965;53.640;10.050;2023-05-19T07:23:03;4.75;;;4.75;;
23573;SDS011;11965;53.640;10.050;2023-05-19T07:25:30;4.65;;;4.65;;
23573;SDS011;11965;53.640;10.050;2023-05-19T07:27:58;4.39;;;4.39;;
23573;SDS011;11965;53.640;10.050;2023-05-19T07:30:27;4.20;;;4.20;;
23573;SDS011;11965;53.640;10.050;2023-05-19T07:32:54;4.36;;;4.36;;
23573;SDS011;11965;53.640;10.050;2023-05-19T07:35:21;4.24;;;4.23;;
23573;SDS011;11965;53.640;10.050;2023-05-19T07:37:49;4.12;;;4.03;;
23573;SDS011;11965;53.640;10.050;2023-05-19T07:40:18;4.50;;;4.43;;
23573;SDS011;11965;53.640;10.050;2023-05-19T07:42:45;4.51;;;4.42;;
23573;SDS011;11965;53.640;10.050;2023-05-19T07:45:13;4.04;;;3.95;;
23573;SDS011;11965;53.640;10.050;2023-05-19T07:47:42;3.87;;;3.86;;
23573;SDS011;11965;53.640;10.050;2023-05-19T07:50:10;4.15;;;4.14;;
23573;SDS011;11965;53.640;10.050;2023-05-19T07:52:37;3.91;;;3.90;;
23573;SDS011;11965;53.640;10.050;2023-05-19T07:55:11;3.84;;;3.84;;
23573;SDS011;11965;53.640;10.050;2023-05-19T07:57:39;3.88;;;3.88;;
23573;SDS011;11965;53.640;10.050;2023-05-19T08:00:06;4.12;;;4.05;;
23573;SDS011;11965;53.640;10.050;2023-05-19T08:02:37;4.07;;;3.94;;
23573;SDS011;11965;53.640;10.050;2023-05-19T08:05:07;4.03;;;3.84;;
23573;SDS011;11965;53.640;10.050;2023-05-19T08:07:35;3.72;;;3.59;;
23573;SDS011;11965;53.640;10.050;2023-05-19T08:10:02;3.53;;;3.39;;
23573;SDS011;11965;53.640;10.050;2023-05-19T08:12:32;3.94;;;3.75;;
23573;SDS011;11965;53.640;10.050;2023-05-19T08:14:59;4.16;;;4.00;;
23573;SDS011;11965;53.640;10.050;2023-05-19T08:17:26;3.79;;;3.60;;
23573;SDS011;11965;53.640;10.050;2023-05-19T08:19:54;3.86;;;3.74;;
23573;SDS011;11965;53.640;10.050;2023-05-19T08:22:23;4.01;;;3.90;;
23573;SDS011;11965;53.640;10.050;2023-05-19T08:24:50;3.63;;;3.54;;
23573;SDS011;11965;53.640;10.050;2023-05-19T08:27:17;3.64;;;3.55;;
23573;SDS011;11965;53.640;10.050;2023-05-19T08:29:45;3.85;;;3.64;;
23573;SDS011;11965;53.640;10.050;2023-05-19T08:32:12;4.05;;;3.82;;
23573;SDS011;11965;53.640;10.050;2023-05-19T08:34:40;3.71;;;3.54;;
23573;SDS011;11965;53.640;10.050;2023-05-19T08:37:07;3.47;;;3.31;;
23573;SDS011;11965;53.640;10.050;2023-05-19T08:39:35;3.48;;;3.32;;
23573;SDS011;11965;53.640;10.050;2023-05-19T08:42:03;3.87;;;3.82;;
23573;SDS011;11965;53.640;10.050;2023-05-19T08:44:31;3.57;;;3.54;;
23573;SDS011;11965;53.640;10.050;2023-05-19T08:46:59;4.06;;;4.04;;
23573;SDS011;11965;53.640;10.050;2023-05-19T08:49:31;3.87;;;3.85;;
23573;SDS011;11965;53.640;10.050;2023-05-19T08:52:05;4.13;;;4.03;;
23573;SDS011;11965;53.640;10.050;2023-05-19T08:54:45;4.22;;;4.14;;
23573;SDS011;11965;53.640;10.050;2023-05-19T08:57:19;3.92;;;3.86;;
23573;SDS011;11965;53.640;10.050;2023-05-19T08:59:48;4.11;;;4.02;;
23573;SDS011;11965;53.640;10.050;2023-05-19T09:02:19;4.15;;;4.14;;
23573;SDS011;11965;53.640;10.050;2023-05-19T09:04:48;3.97;;;3.97;;
23573;SDS011;11965;53.640;10.050;2023-05-19T09:07:16;4.31;;;4.31;;
23573;SDS011;11965;53.640;10.050;2023-05-19T09:09:47;4.42;;;4.42;;
23573;SDS011;11965;53.640;10.050;2023-05-19T09:12:15;4.29;;;4.29;;
23573;SDS011;11965;53.640;10.050;2023-05-19T09:14:42;4.68;;;4.68;;
23573;SDS011;11965;53.640;10.050;2023-05-19T09:17:11;4.17;;;4.17;;
23573;SDS011;11965;53.640;10.050;2023-05-19T09:19:41;3.57;;;3.57;;
23573;SDS011;11965;53.640;10.050;2023-05-19T09:22:11;4.15;;;4.15;;
23573;SDS011;11965;53.640;10.050;2023-05-19T09:24:44;4.54;;;4.54;;
23573;SDS011;11965;53.640;10.050;2023-05-19T09:27:14;3.94;;;3.83;;
23573;SDS011;11965;53.640;10.050;2023-05-19T09:29:48;4.35;;;4.26;;
23573;SDS011;11965;53.640;10.050;2023-05-19T09:32:22;4.21;;;4.08;;
23573;SDS011;11965;53.640;10.050;2023-05-19T09:34:52;4.63;;;4.62;;
23573;SDS011;11965;53.640;10.050;2023-05-19T09:37:21;4.40;;;4.40;;
23573;SDS011;11965;53.640;10.050;2023-05-19T09:39:51;4.09;;;4.08;;
23573;SDS011;11965;53.640;10.050;2023-05-19T09:42:24;4.34;;;4.30;;
23573;SDS011;11965;53.640;10.050;2023-05-19T09:45:00;4.07;;;4.07;;
23573;SDS011;11965;53.640;10.050;2023-05-19T09:47:31;4.20;;;4.20;;
23573;SDS011;11965;53.640;10.050;2023-05-19T09:50:00;4.26;;;4.26;;
23573;SDS011;11965;53.640;10.050;2023-05-19T09:52:27;3.86;;;3.86;;
23573;SDS011;11965;53.640;10.050;2023-05-19T09:54:54;3.99;;;3.99;;
23573;SDS011;11965;53.640;10.050;2023-05-19T09:57:25;3.82;;;3.82;;
23573;SDS011;11965;53.640;10.050;2023-05-19T09:59:54;3.86;;;3.86;;
23573;SDS011;11965;53.640;10.050;2023-05-19T10:02:24;3.51;;;3.51;;
23573;SDS011;11965;53.640;10.050;2023-05-19T10:04:53;3.55;;;3.55;;
23573;SDS011;11965;53.640;10.050;2023-05-19T10:07:21;3.66;;;3.66;;
23573;SDS011;11965;53.640;10.050;2023-05-19T10:09:49;3.85;;;3.79;;
23573;SDS011;11965;53.640;10.050;2023-05-19T10:12:19;4.12;;;4.02;;
23573;SDS011;11965;53.640;10.050;2023-05-19T10:14:49;4.32;;;4.24;;
23573;SDS011;11965;53.640;10.050;2023-05-19T10:17:19;4.01;;;3.83;;
23573;SDS011;11965;53.640;10.050;2023-05-19T10:19:47;3.73;;;3.62;;
23573;SDS011;11965;53.640;10.050;2023-05-19T10:22:20;3.44;;;3.40;;
23573;SDS011;11965;53.640;10.050;2023-05-19T10:24:47;3.52;;;3.52;;
23573;SDS011;11965;53.640;10.050;2023-05-19T10:27:14;3.63;;;3.62;;
23573;SDS011;11965;53.640;10.050;2023-05-19T10:29:44;3.17;;;3.13;;
23573;SDS011;11965;53.640;10.050;2023-05-19T10:32:20;4.06;;;3.81;;
23573;SDS011;11965;53.640;10.050;2023-05-19T10:34:55;3.57;;;3.31;;
23573;SDS011;11965;53.640;10.050;2023-05-19T10:37:54;3.62;;;3.40;;
23573;SDS011;11965;53.640;10.050;2023-05-19T10:40:35;3.75;;;3.57;;
23573;SDS011;11965;53.640;10.050;2023-05-19T10:43:11;3.75;;;3.61;;
23573;SDS011;11965;53.640;10.050;2023-05-19T10:45:46;3.33;;;3.23;;
23573;SDS011;11965;53.640;10.050;2023-05-19T10:48:16;3.05;;;3.05;;
23573;SDS011;11965;53.640;10.050;2023-05-19T10:50:46;3.44;;;3.40;;
23573;SDS011;11965;53.640;10.050;2023-05-19T10:53:13;3.17;;;3.16;;
23573;SDS011;11965;53.640;10.050;2023-05-19T10:55:46;3.30;;;3.23;;
23573;SDS011;11965;53.640;10.050;2023-05-19T11:01:06;3.59;;;3.41;;
23573;SDS011;11965;53.640;10.050;2023-05-19T11:03:45;3.40;;;3.27;;
23573;SDS011;11965;53.640;10.050;2023-05-19T11:06:23;3.01;;;2.90;;
23573;SDS011;11965;53.640;10.050;2023-05-19T11:08:53;3.40;;;3.24;;
23573;SDS011;11965;53.640;10.050;2023-05-19T11:11:22;3.52;;;3.36;;
23573;SDS011;11965;53.640;10.050;2023-05-19T11:13:50;3.49;;;3.35;;
23573;SDS011;11965;53.640;10.050;2023-05-19T11:16:25;3.20;;;3.07;;
23573;SDS011;11965;53.640;10.050;2023-05-19T11:18:54;3.25;;;3.14;;
23573;SDS011;11965;53.640;10.050;2023-05-19T11:21:21;3.36;;;3.29;;
23573;SDS011;11965;53.640;10.050;2023-05-19T11:23:49;3.58;;;3.39;;
23573;SDS011;11965;53.640;10.050;2023-05-19T11:29:06;3.33;;;3.20;;
23573;SDS011;11965;53.640;10.050;2023-05-19T11:31:34;3.42;;;3.24;;
23573;SDS011;11965;53.640;10.050;2023-05-19T11:34:03;3.56;;;3.35;;
23573;SDS011;11965;53.640;10.050;2023-05-19T11:36:32;3.43;;;3.26;;
23573;SDS011;11965;53.640;10.050;2023-05-19T11:39:01;3.18;;;3.04;;
23573;SDS011;11965;53.640;10.050;2023-05-19T11:41:30;3.18;;;3.01;;
23573;SDS011;11965;53.640;10.050;2023-05-19T11:43:57;3.25;;;3.08;;
23573;SDS011;11965;53.640;10.050;2023-05-19T11:46:24;2.94;;;2.80;;
23573;SDS011;11965;53.640;10.050;2023-05-19T11:48:52;3.09;;;2.95;;
23573;SDS011;11965;53.640;10.050;2023-05-19T11:51:22;3.12;;;2.95;;
23573;SDS011;11965;53.640;10.050;2023-05-19T11:53:49;3.29;;;3.11;;
23573;SDS011;11965;53.640;10.050;2023-05-19T11:56:18;3.14;;;2.97;;
23573;SDS011;11965;53.640;10.050;2023-05-19T11:58:45;2.86;;;2.69;;
23573;SDS011;11965;53.640;10.050;2023-05-19T12:01:12;2.84;;;2.68;;
23573;SDS011;11965;53.640;10.050;2023-05-19T12:03:42;3.41;;;3.25;;
23573;SDS011;11965;53.640;10.050;2023-05-19T12:06:10;3.01;;;2.89;;
23573;SDS011;11965;53.640;10.050;2023-05-19T12:08:42;3.08;;;2.99;;
23573;SDS011;11965;53.640;10.050;2023-05-19T12:11:10;3.02;;;2.92;;
23573;SDS011;11965;53.640;10.050;2023-05-19T12:13:38;2.92;;;2.84;;
23573;SDS011;11965;53.640;10.050;2023-05-19T12:16:05;3.23;;;3.06;;
23573;SDS011;11965;53.640;10.050;2023-05-19T12:18:35;3.04;;;2.89;;
23573;SDS011;11965;53.640;10.050;2023-05-19T12:21:04;3.07;;;2.96;;
23573;SDS011;11965;53.640;10.050;2023-05-19T12:23:32;3.19;;;3.07;;
23573;SDS011;11965;53.640;10.050;2023-05-19T12:26:01;3.04;;;2.95;;
23573;SDS011;11965;53.640;10.050;2023-05-19T12:28:29;2.75;;;2.65;;
23573;SDS011;11965;53.640;10.050;2023-05-19T12:30:56;2.71;;;2.63;;
23573;SDS011;11965;53.640;10.050;2023-05-19T12:33:24;2.88;;;2.79;;
23573;SDS011;11965;53.640;10.050;2023-05-19T12:35:51;2.86;;;2.76;;
23573;SDS011;11965;53.640;10.050;2023-05-19T12:38:20;2.74;;;2.64;;
23573;SDS011;11965;53.640;10.050;2023-05-19T12:40:48;2.75;;;2.63;;
23573;SDS011;11965;53.640;10.050;2023-05-19T12:43:20;2.85;;;2.72;;
23573;SDS011;11965;53.640;10.050;2023-05-19T12:45:47;2.54;;;2.45;;
23573;SDS011;11965;53.640;10.050;2023-05-19T12:48:14;2.73;;;2.64;;
23573;SDS011;11965;53.640;10.050;2023-05-19T12:50:42;2.60;;;2.53;;
23573;SDS011;11965;53.640;10.050;2023-05-19T12:53:10;2.48;;;2.46;;
23573;SDS011;11965;53.640;10.050;2023-05-19T12:55:38;2.63;;;2.61;;
23573;SDS011;11965;53.640;10.050;2023-05-19T12:58:07;2.50;;;2.50;;
23573;SDS011;11965;53.640;10.050;2023-05-19T13:00:40;2.68;;;2.65;;
23573;SDS011;11965;53.640;10.050;2023-05-19T13:03:14;2.38;;;2.36;;
23573;SDS011;11965;53.640;10.050;2023-05-19T13:05:42;2.81;;;2.75;;
23573;SDS011;11965;53.640;10.050;2023-05-19T13:08:15;2.46;;;2.42;;
23573;SDS011;11965;53.640;10.050;2023-05-19T13:10:45;2.72;;;2.68;;
23573;SDS011;11965;53.640;10.050;2023-05-19T13:13:13;2.57;;;2.53;;
23573;SDS011;11965;53.640;10.050;2023-05-19T13:15:42;2.68;;;2.64;;
23573;SDS011;11965;53.640;10.050;2023-05-19T13:18:10;2.56;;;2.53;;
23573;SDS011;11965;53.640;10.050;2023-05-19T13:20:40;2.53;;;2.53;;
23573;SDS011;11965;53.640;10.050;2023-05-19T13:23:08;3.04;;;3.01;;
23573;SDS011;11965;53.640;10.050;2023-05-19T13:25:36;2.42;;;2.42;;
23573;SDS011;11965;53.640;10.050;2023-05-19T13:28:03;2.76;;;2.74;;
23573;SDS011;11965;53.640;10.050;2023-05-19T13:30:31;2.80;;;2.76;;
23573;SDS011;11965;53.640;10.050;2023-05-19T13:33:00;2.99;;;2.92;;
23573;SDS011;11965;53.640;10.050;2023-05-19T13:35:27;2.84;;;2.77;;
23573;SDS011;11965;53.640;10.050;2023-05-19T13:37:55;2.81;;;2.75;;
23573;SDS011;11965;53.640;10.050;2023-05-19T13:40:22;2.65;;;2.62;;
23573;SDS011;11965;53.640;10.050;2023-05-19T13:42:50;2.88;;;2.88;;
23573;SDS011;11965;53.640;10.050;2023-05-19T13:45:17;2.61;;;2.57;;
23573;SDS011;11965;53.640;10.050;2023-05-19T13:47:44;2.76;;;2.75;;
23573;SDS011;11965;53.640;10.050;2023-05-19T13:50:12;2.76;;;2.76;;
23573;SDS011;11965;53.640;10.050;2023-05-19T13:52:39;2.72;;;2.71;;
23573;SDS011;11965;53.640;10.050;2023-05-19T13:55:09;2.39;;;2.38;;
23573;SDS011;11965;53.640;10.050;2023-05-19T13:57:36;2.44;;;2.43;;
23573;SDS011;11965;53.640;10.050;2023-05-19T14:00:03;2.39;;;2.38;;
23573;SDS011;11965;53.640;10.050;2023-05-19T14:02:40;2.37;;;2.34;;
23573;SDS011;11965;53.640;10.050;2023-05-19T14:05:07;2.62;;;2.59;;
23573;SDS011;11965;53.640;10.050;2023-05-19T14:07:35;2.58;;;2.56;;
23573;SDS011;11965;53.640;10.050;2023-05-19T14:10:02;2.43;;;2.41;;
23573;SDS011;11965;53.640;10.050;2023-05-19T14:12:31;2.22;;;2.19;;
23573;SDS011;11965;53.640;10.050;2023-05-19T14:14:59;2.34;;;2.32;;
23573;SDS011;11965;53.640;10.050;2023-05-19T14:17:26;2.49;;;2.49;;
23573;SDS011;11965;53.640;10.050;2023-05-19T14:19:53;2.89;;;2.88;;
23573;SDS011;11965;53.640;10.050;2023-05-19T14:22:20;2.36;;;2.35;;
23573;SDS011;11965;53.640;10.050;2023-05-19T14:24:49;2.25;;;2.23;;
23573;SDS011;11965;53.640;10.050;2023-05-19T14:27:15;2.34;;;2.32;;
23573;SDS011;11965;53.640;10.050;2023-05-19T14:29:42;2.34;;;2.34;;
23573;SDS011;11965;53.640;10.050;2023-05-19T14:32:09;2.59;;;2.56;;
23573;SDS011;11965;53.640;10.050;2023-05-19T14:34:36;2.21;;;2.17;;
23573;SDS011;11965;53.640;10.050;2023-05-19T14:37:03;2.06;;;2.03;;
23573;SDS011;11965;53.640;10.050;2023-05-19T14:39:31;2.16;;;2.12;;
23573;SDS011;11965;53.640;10.050;2023-05-19T14:41:59;2.52;;;2.47;;
23573;SDS011;11965;53.640;10.050;2023-05-19T14:44:28;2.33;;;2.27;;
23573;SDS011;11965;53.640;10.050;2023-05-19T14:46:57;2.16;;;2.12;;
23573;SDS011;11965;53.640;10.050;2023-05-19T14:49:24;2.33;;;2.30;;
23573;SDS011;11965;53.640;10.050;2023-05-19T14:51:51;2.21;;;2.17;;
23573;SDS011;11965;53.640;10.050;2023-05-19T14:54:18;2.18;;;2.15;;
23573;SDS011;11965;53.640;10.050;2023-05-19T14:56:45;2.21;;;2.21;;
23573;SDS011;11965;53.640;10.050;2023-05-19T14:59:13;2.19;;;2.19;;